^^
WestSenecaWeather Station Historical Data
 
Daily Summary for September 20, 2017 Units:  English    Metric   Both
Daily Weekly Monthly Yearly Custom

Warning: Division by zero in C:\xampp\htdocs\weather\WU-History-inc.php on line 1267

Notice: Undefined variable: return in C:\xampp\htdocs\weather\WU-History-inc.php on line 1288
  Current: High: Low: Average:
Temperature: 81.7 °F 82.8 °F 57.9 °F 68.3 °F
Dew Point: 65.0 °F 66.4 °F 56.7 °F 61.3 °F
Humidity: 57% 97% 47% 81%
Wind Speed: 0.0mph 0.0mph 0.0mph 0mph
Wind Gust: 0.0mph 0.0mph - -
Wind Calm - -
Pressure: 29.96 in 30.01 in 29.94 in -
Precipitation: 0.00 in      
Historical Graphs
 
 
Tabular Data for September 20, 2017
Time Temperature Dew Point Pressure Wind Wind Speed Wind Gust Humidity Rainfall Rate (Hourly) solar
00:01 66.2 °F 64.1 °F 29.95 in Calm     93% 0.00 in 0.0 W/m2
00:06 65.9 °F 63.8 °F 29.95 in Calm     93% 0.00 in 0.0 W/m2
00:11 65.7 °F 63.6 °F 29.95 in Calm     93% 0.00 in 0.0 W/m2
00:16 65.6 °F 63.5 °F 29.95 in Calm     93% 0.00 in 0.0 W/m2
00:21 65.5 °F 63.4 °F 29.95 in Calm     93% 0.00 in 0.0 W/m2
00:26 65.3 °F 63.2 °F 29.95 in Calm     93% 0.00 in 0.0 W/m2
00:31 65.2 °F 63.1 °F 29.95 in Calm     93% 0.00 in 0.0 W/m2
00:36 65.1 °F 63.0 °F 29.95 in Calm     93% 0.00 in 0.0 W/m2
00:41 64.9 °F 62.8 °F 29.95 in Calm     93% 0.00 in 0.0 W/m2
00:46 64.8 °F 62.7 °F 29.95 in Calm     93% 0.00 in 0.0 W/m2
00:51 64.7 °F 62.9 °F 29.95 in Calm     94% 0.00 in 0.0 W/m2
00:56 64.5 °F 62.4 °F 29.94 in Calm     93% 0.00 in 0.0 W/m2
01:01 64.4 °F 62.3 °F 29.95 in Calm     93% 0.00 in 0.0 W/m2
01:06 64.2 °F 62.1 °F 29.95 in Calm     93% 0.00 in 0.0 W/m2
01:11 64.0 °F 61.9 °F 29.95 in Calm     93% 0.00 in 0.0 W/m2
01:12 63.9 °F 61.8 °F 29.95 in Calm     93% 0.00 in 0.0 W/m2
01:17 63.8 °F 61.7 °F 29.95 in Calm     93% 0.00 in 0.0 W/m2
01:22 63.6 °F 61.5 °F 29.95 in Calm     93% 0.00 in 0.0 W/m2
01:27 63.5 °F 61.7 °F 29.95 in Calm     94% 0.00 in 0.0 W/m2
01:32 63.3 °F 61.5 °F 29.95 in Calm     94% 0.00 in 0.0 W/m2
01:37 63.2 °F 61.4 °F 29.95 in Calm     94% 0.00 in 0.0 W/m2
01:42 63.2 °F 61.4 °F 29.95 in Calm     94% 0.00 in 0.0 W/m2
01:47 63.0 °F 61.2 °F 29.95 in Calm     94% 0.00 in 0.0 W/m2
01:52 62.9 °F 61.1 °F 29.95 in Calm     94% 0.00 in 0.0 W/m2
01:57 62.9 °F 61.1 °F 29.96 in Calm     94% 0.00 in 0.0 W/m2
02:02 62.7 °F 60.9 °F 29.96 in Calm     94% 0.00 in 0.0 W/m2
02:07 62.7 °F 60.9 °F 29.96 in Calm     94% 0.00 in 0.0 W/m2
02:12 62.6 °F 60.8 °F 29.96 in Calm     94% 0.00 in 0.0 W/m2
02:17 62.5 °F 60.7 °F 29.96 in Calm     94% 0.00 in 0.0 W/m2
02:23 62.4 °F 60.7 °F 29.96 in Calm     94% 0.00 in 0.0 W/m2
02:28 62.3 °F 60.6 °F 29.96 in Calm     94% 0.00 in 0.0 W/m2
02:33 62.3 °F 60.6 °F 29.96 in Calm     94% 0.00 in 0.0 W/m2
02:38 62.3 °F 60.6 °F 29.95 in Calm     94% 0.00 in 0.0 W/m2
02:43 62.3 °F 60.2 °F 29.95 in Calm     93% 0.00 in 0.0 W/m2
02:48 62.2 °F 60.2 °F 29.95 in Calm     93% 0.00 in 0.0 W/m2
02:53 62.2 °F 60.2 °F 29.96 in Calm     93% 0.00 in 0.0 W/m2
02:58 62.2 °F 60.2 °F 29.95 in Calm     93% 0.00 in 0.0 W/m2
03:03 62.0 °F 60.0 °F 29.95 in Calm     93% 0.00 in 0.0 W/m2
03:08 61.9 °F 59.9 °F 29.95 in Calm     93% 0.00 in 0.0 W/m2
03:13 61.7 °F 59.7 °F 29.95 in Calm     93% 0.00 in 0.0 W/m2
03:18 61.6 °F 59.6 °F 29.95 in Calm     93% 0.00 in 0.0 W/m2
03:23 61.5 °F 59.5 °F 29.95 in Calm     93% 0.00 in 0.0 W/m2
03:28 61.4 °F 59.7 °F 29.95 in Calm     94% 0.00 in 0.0 W/m2
03:33 61.4 °F 59.7 °F 29.96 in Calm     94% 0.00 in 0.0 W/m2
03:38 61.3 °F 59.6 °F 29.96 in Calm     94% 0.00 in 0.0 W/m2
03:43 61.2 °F 59.5 °F 29.95 in Calm     94% 0.00 in 0.0 W/m2
03:48 61.1 °F 59.4 °F 29.96 in Calm     94% 0.00 in 0.0 W/m2
03:53 61.1 °F 59.4 °F 29.95 in Calm     94% 0.00 in 0.0 W/m2
03:58 61.0 °F 59.3 °F 29.95 in Calm     94% 0.00 in 0.0 W/m2
04:03 60.9 °F 59.2 °F 29.96 in Calm     94% 0.00 in 0.0 W/m2
04:08 60.9 °F 59.2 °F 29.96 in Calm     94% 0.00 in 0.0 W/m2
04:13 60.8 °F 59.1 °F 29.95 in Calm     94% 0.00 in 0.0 W/m2
04:18 60.8 °F 59.1 °F 29.95 in Calm     94% 0.00 in 0.0 W/m2
04:23 60.7 °F 59.0 °F 29.95 in Calm     94% 0.00 in 0.0 W/m2
04:28 60.5 °F 58.8 °F 29.96 in Calm     94% 0.00 in 0.0 W/m2
04:33 60.4 °F 58.7 °F 29.95 in Calm     94% 0.00 in 0.0 W/m2
04:38 60.3 °F 58.6 °F 29.95 in Calm     94% 0.00 in 0.0 W/m2
04:43 60.2 °F 58.5 °F 29.95 in Calm     94% 0.00 in 0.0 W/m2
04:48 60.0 °F 58.3 °F 29.95 in Calm     94% 0.00 in 0.0 W/m2
04:53 60.0 °F 58.6 °F 29.95 in Calm     95% 0.00 in 0.0 W/m2
04:58 60.2 °F 58.8 °F 29.95 in Calm     95% 0.00 in 0.0 W/m2
05:03 60.2 °F 58.8 °F 29.96 in Calm     95% 0.00 in 0.0 W/m2
05:08 60.1 °F 58.7 °F 29.96 in Calm     95% 0.00 in 0.0 W/m2
05:13 60.0 °F 58.6 °F 29.96 in Calm     95% 0.00 in 0.0 W/m2
05:18 59.8 °F 58.4 °F 29.95 in Calm     95% 0.00 in 0.0 W/m2
05:23 59.6 °F 58.2 °F 29.95 in Calm     95% 0.00 in 0.0 W/m2
05:28 59.4 °F 57.7 °F 29.96 in Calm     94% 0.00 in 0.0 W/m2
05:33 59.3 °F 57.6 °F 29.96 in Calm     94% 0.00 in 0.0 W/m2
05:38 59.1 °F 57.7 °F 29.96 in Calm     95% 0.00 in 0.0 W/m2
05:43 59.0 °F 57.6 °F 29.96 in Calm     95% 0.00 in 0.0 W/m2
05:48 58.8 °F 57.4 °F 29.96 in Calm     95% 0.00 in 0.0 W/m2
05:53 58.6 °F 57.2 °F 29.96 in Calm     95% 0.00 in 0.0 W/m2
05:58 58.5 °F 57.1 °F 29.97 in Calm     95% 0.00 in 0.0 W/m2
06:03 58.4 °F 57.0 °F 29.97 in Calm     95% 0.00 in 0.0 W/m2
06:08 58.2 °F 56.8 °F 29.97 in Calm     95% 0.00 in 0.0 W/m2
06:13 58.2 °F 56.8 °F 29.97 in Calm     95% 0.00 in 0.0 W/m2
06:18 58.1 °F 56.7 °F 29.97 in Calm     95% 0.00 in 0.0 W/m2
06:23 58.0 °F 56.9 °F 29.97 in Calm     96% 0.00 in 0.0 W/m2
06:28 58.0 °F 56.9 °F 29.97 in Calm     96% 0.00 in 0.0 W/m2
06:33 57.9 °F 56.8 °F 29.97 in Calm     96% 0.00 in 0.0 W/m2
06:38 57.9 °F 56.8 °F 29.97 in Calm     96% 0.00 in 0.0 W/m2
06:43 58.0 °F 56.9 °F 29.97 in Calm     96% 0.00 in 0.0 W/m2
06:48 58.0 °F 56.9 °F 29.98 in Calm     96% 0.00 in 0.0 W/m2
06:53 58.0 °F 56.9 °F 29.98 in Calm     96% 0.00 in 0.0 W/m2
06:58 58.0 °F 56.9 °F 29.98 in Calm     96% 0.00 in 0.0 W/m2
07:03 58.0 °F 56.9 °F 29.98 in Calm     96% 0.00 in 0.0 W/m2
07:08 58.0 °F 56.9 °F 29.99 in Calm     96% 0.00 in 0.0 W/m2
07:13 58.2 °F 57.4 °F 29.99 in Calm     97% 0.00 in 0.0 W/m2
07:18 58.7 °F 57.9 °F 29.99 in Calm     97% 0.00 in 0.0 W/m2
07:23 59.0 °F 58.2 °F 29.99 in Calm     97% 0.00 in 0.0 W/m2
07:28 59.1 °F 58.2 °F 29.99 in Calm     97% 0.00 in 0.0 W/m2
07:33 59.2 °F 58.3 °F 29.99 in Calm     97% 0.00 in 0.0 W/m2
07:38 59.2 °F 58.1 °F 29.99 in Calm     96% 0.00 in 0.0 W/m2
07:43 59.2 °F 58.1 °F 29.99 in Calm     96% 0.00 in 0.0 W/m2
07:48 59.3 °F 58.4 °F 29.99 in Calm     97% 0.00 in 0.0 W/m2
07:53 59.4 °F 58.5 °F 29.99 in Calm     97% 0.00 in 0.0 W/m2
07:58 59.6 °F 58.7 °F 29.99 in Calm     97% 0.00 in 0.0 W/m2
08:03 59.7 °F 58.6 °F 29.99 in Calm     96% 0.00 in 0.0 W/m2
08:08 59.8 °F 58.7 °F 29.99 in Calm     96% 0.00 in 0.0 W/m2
08:13 60.0 °F 58.9 °F 30.00 in Calm     96% 0.00 in 0.0 W/m2
08:18 60.3 °F 59.2 °F 29.99 in Calm     96% 0.00 in 0.0 W/m2
08:23 60.5 °F 59.4 °F 30.00 in Calm     96% 0.00 in 0.0 W/m2
08:28 60.9 °F 59.8 °F 30.00 in Calm     96% 0.00 in 0.0 W/m2
08:34 61.3 °F 59.9 °F 30.00 in Calm     95% 0.00 in 0.0 W/m2
08:39 61.8 °F 60.1 °F 30.00 in Calm     94% 0.00 in 0.0 W/m2
08:44 62.1 °F 60.4 °F 30.00 in Calm     94% 0.00 in 0.0 W/m2
08:49 62.5 °F 60.4 °F 30.00 in Calm     93% 0.00 in 0.0 W/m2
08:54 62.9 °F 60.5 °F 30.00 in Calm     92% 0.00 in 0.0 W/m2
08:59 63.5 °F 60.8 °F 30.00 in Calm     91% 0.00 in 0.0 W/m2
09:04 64.0 °F 61.0 °F 30.00 in Calm     90% 0.00 in 0.0 W/m2
09:09 64.4 °F 61.1 °F 30.00 in Calm     89% 0.00 in 0.0 W/m2
09:14 64.8 °F 61.5 °F 30.00 in Calm     89% 0.00 in 0.0 W/m2
09:19 65.2 °F 61.6 °F 30.01 in Calm     88% 0.00 in 0.0 W/m2
09:24 65.8 °F 62.1 °F 30.01 in Calm     88% 0.00 in 0.0 W/m2
09:29 66.3 °F 62.3 °F 30.01 in Calm     87% 0.00 in 0.0 W/m2
09:34 66.7 °F 62.4 °F 30.01 in Calm     86% 0.00 in 0.0 W/m2
09:39 67.0 °F 62.3 °F 30.01 in Calm     85% 0.00 in 0.0 W/m2
09:44 67.4 °F 62.4 °F 30.01 in Calm     84% 0.00 in 0.0 W/m2
09:49 67.9 °F 62.5 °F 30.01 in Calm     83% 0.00 in 0.0 W/m2
09:54 68.3 °F 63.3 °F 30.01 in Calm     84% 0.00 in 0.0 W/m2
09:59 69.1 °F 63.7 °F 30.01 in Calm     83% 0.00 in 0.0 W/m2
10:04 69.7 °F 64.0 °F 30.01 in Calm     82% 0.00 in 0.0 W/m2
10:09 70.3 °F 63.8 °F 30.01 in Calm     80% 0.00 in 0.0 W/m2
10:14 70.9 °F 63.7 °F 30.01 in Calm     78% 0.00 in 0.0 W/m2
10:19 71.5 °F 64.3 °F 30.01 in Calm     78% 0.00 in 0.0 W/m2
10:24 72.0 °F 64.0 °F 30.01 in Calm     76% 0.00 in 0.0 W/m2
10:29 72.5 °F 64.5 °F 30.01 in Calm     76% 0.00 in 0.0 W/m2
10:35 72.9 °F 64.9 °F 30.01 in Calm     76% 0.00 in 0.0 W/m2
10:36 73.0 °F 65.0 °F 30.01 in Calm     76% 0.00 in 0.0 W/m2
10:41 73.1 °F 64.7 °F 30.01 in Calm     75% 0.00 in 0.0 W/m2
10:46 73.2 °F 64.4 °F 30.01 in Calm     74% 0.00 in 0.0 W/m2
10:51 73.5 °F 65.1 °F 30.00 in Calm     75% 0.00 in 0.0 W/m2
10:56 73.9 °F 65.1 °F 30.01 in Calm     74% 0.00 in 0.0 W/m2
11:01 74.3 °F 65.5 °F 30.00 in Calm     74% 0.00 in 0.0 W/m2
11:06 74.8 °F 65.2 °F 30.00 in Calm     72% 0.00 in 0.0 W/m2
11:11 75.3 °F 65.2 °F 30.01 in Calm     71% 0.00 in 0.0 W/m2
11:16 75.8 °F 64.9 °F 30.01 in Calm     69% 0.00 in 0.0 W/m2
11:21 76.2 °F 64.9 °F 30.01 in Calm     68% 0.00 in 0.0 W/m2
11:26 76.4 °F 64.6 °F 30.01 in Calm     67% 0.00 in 0.0 W/m2
11:31 76.7 °F 64.9 °F 30.01 in Calm     67% 0.00 in 0.0 W/m2
11:36 76.8 °F 64.6 °F 30.00 in Calm     66% 0.00 in 0.0 W/m2
11:41 77.3 °F 64.6 °F 30.00 in Calm     65% 0.00 in 0.0 W/m2
11:46 78.0 °F 63.5 °F 30.00 in Calm     61% 0.00 in 0.0 W/m2
11:51 77.8 °F 63.3 °F 30.00 in Calm     61% 0.00 in 0.0 W/m2
11:56 78.3 °F 63.7 °F 30.00 in Calm     61% 0.00 in 0.0 W/m2
12:01 78.4 °F 63.4 °F 30.00 in Calm     60% 0.00 in 0.0 W/m2
12:06 78.6 °F 63.1 °F 30.00 in Calm     59% 0.00 in 0.0 W/m2
12:11 79.1 °F 63.1 °F 30.00 in Calm     58% 0.00 in 0.0 W/m2
12:16 79.2 °F 64.1 °F 30.00 in Calm     60% 0.00 in 0.0 W/m2
12:17 79.3 °F 64.2 °F 30.00 in Calm     60% 0.00 in 0.0 W/m2
12:22 79.1 °F 64.5 °F 30.00 in Calm     61% 0.00 in 0.0 W/m2
12:27 78.9 °F 63.8 °F 30.00 in Calm     60% 0.00 in 0.0 W/m2
12:32 78.9 °F 64.8 °F 30.00 in Calm     62% 0.00 in 0.0 W/m2
12:37 78.9 °F 64.3 °F 30.00 in Calm     61% 0.00 in 0.0 W/m2
12:42 79.2 °F 64.6 °F 30.00 in Calm     61% 0.00 in 0.0 W/m2
12:47 79.1 °F 64.5 °F 30.00 in Calm     61% 0.00 in 0.0 W/m2
12:52 79.2 °F 64.1 °F 30.00 in Calm     60% 0.00 in 0.0 W/m2
12:57 79.5 °F 63.9 °F 30.00 in Calm     59% 0.00 in 0.0 W/m2
13:02 80.0 °F 63.9 °F 30.00 in Calm     58% 0.00 in 0.0 W/m2
13:07 80.7 °F 62.5 °F 29.99 in Calm     54% 0.00 in 0.0 W/m2
13:12 80.9 °F 61.6 °F 29.99 in Calm     52% 0.00 in 0.0 W/m2
13:17 81.0 °F 60.6 °F 29.99 in Calm     50% 0.00 in 0.0 W/m2
13:22 80.5 °F 61.8 °F 29.99 in Calm     53% 0.00 in 0.0 W/m2
13:27 80.7 °F 62.0 °F 29.99 in Calm     53% 0.00 in 0.0 W/m2
13:32 81.1 °F 61.3 °F 29.99 in Calm     51% 0.00 in 0.0 W/m2
13:37 81.4 °F 62.1 °F 29.99 in Calm     52% 0.00 in 0.0 W/m2
13:42 80.8 °F 61.5 °F 29.98 in Calm     52% 0.00 in 0.0 W/m2
13:47 81.2 °F 62.4 °F 29.98 in Calm     53% 0.00 in 0.0 W/m2
13:52 81.9 °F 61.4 °F 29.98 in Calm     50% 0.00 in 0.0 W/m2
13:57 82.0 °F 62.1 °F 29.98 in Calm     51% 0.00 in 0.0 W/m2
14:02 82.1 °F 59.9 °F 29.98 in Calm     47% 0.00 in 0.0 W/m2
14:07 82.5 °F 62.0 °F 29.98 in Calm     50% 0.00 in 0.0 W/m2
14:08 82.6 °F 61.5 °F 29.98 in Calm     49% 0.00 in 0.0 W/m2
14:13 82.8 °F 61.1 °F 29.98 in Calm     48% 0.00 in 0.0 W/m2
14:18 82.5 °F 61.4 °F 29.98 in Calm     49% 0.00 in 0.0 W/m2
14:23 81.8 °F 61.9 °F 29.97 in Calm     51% 0.00 in 0.0 W/m2
14:28 82.0 °F 62.6 °F 29.97 in Calm     52% 0.00 in 0.0 W/m2
14:33 82.1 °F 62.2 °F 29.97 in Calm     51% 0.00 in 0.0 W/m2
14:38 82.1 °F 62.7 °F 29.97 in Calm     52% 0.00 in 0.0 W/m2
14:43 81.7 °F 62.9 °F 29.97 in Calm     53% 0.00 in 0.0 W/m2
14:48 81.6 °F 62.8 °F 29.97 in Calm     53% 0.00 in 0.0 W/m2
14:53 81.9 °F 63.6 °F 29.97 in Calm     54% 0.00 in 0.0 W/m2
14:58 82.6 °F 63.7 °F 29.97 in Calm     53% 0.00 in 0.0 W/m2
15:03 82.4 °F 64.1 °F 29.97 in Calm     54% 0.00 in 0.0 W/m2
15:08 82.2 °F 63.4 °F 29.97 in Calm     53% 0.00 in 0.0 W/m2
15:13 82.3 °F 64.0 °F 29.97 in Calm     54% 0.00 in 0.0 W/m2
15:18 82.6 °F 64.8 °F 29.96 in Calm     55% 0.00 in 0.0 W/m2
15:23 82.5 °F 64.7 °F 29.96 in Calm     55% 0.00 in 0.0 W/m2
15:28 82.3 °F 64.0 °F 29.96 in Calm     54% 0.00 in 0.0 W/m2
15:33 82.5 °F 65.2 °F 29.96 in Calm     56% 0.00 in 0.0 W/m2
15:38 82.5 °F 65.7 °F 29.96 in Calm     57% 0.00 in 0.0 W/m2
15:43 82.6 °F 64.8 °F 29.96 in Calm     55% 0.00 in 0.0 W/m2
15:48 82.2 °F 66.4 °F 29.96 in Calm     59% 0.00 in 0.0 W/m2
15:53 81.6 °F 66.4 °F 29.96 in Calm     60% 0.00 in 0.0 W/m2
15:58 81.5 °F 65.3 °F 29.96 in Calm     58% 0.00 in 0.0 W/m2
16:03 81.7 °F 65.0 °F 29.96 in Calm     57% 0.00 in 0.0 W/m2
west seneca weather
Compliments of Weather Underground - 2 mb